Time;durP1;ratioP1;P1;durP2;ratioP2;P2;SDS_P1;SDS_P2;PMS_P1;PMS_P2;Temp;Humidity;BMP_temperature;BMP_pressure;BME280_temperature;BME280_humidity;BME280_pressure;Samples;Min_cycle;Max_cycle;Signal;HPM_P1;HPM_P2
2021/11/12 00:14:49;;;;;;;64.40;30.70;;;;;;;;;;4915035;29;20063;-88
2021/11/12 00:17:19;;;;;;;69.97;31.67;;;;;;;;;;4904845;29;20040;-88
2021/11/12 00:19:45;;;;;;;66.13;31.02;;;;;;;;;;4919194;29;20021;-88
2021/11/12 00:22:12;;;;;;;61.67;29.98;;;;;;;;;;4884765;29;20415;-89
2021/11/12 00:24:39;;;;;;;67.57;32.45;;;;;;;;;;4884257;29;20036;-88
2021/11/12 00:27:06;;;;;;;66.97;32.50;;;;;;;;;;4883697;29;20021;-88
2021/11/12 00:45:30;;;;;;;68.50;33.33;;;;;;;;;;4900609;29;20032;-88
2021/11/12 00:48:00;;;;;;;69.68;30.65;;;;;;;;;;4883565;29;20475;-88
2021/11/12 00:55:25;;;;;;;58.90;28.40;;;;;;;;;;4900468;29;20428;-88
2021/11/12 00:57:51;;;;;;;59.35;30.63;;;;;;;;;;4884524;29;20056;-89
2021/11/12 01:00:19;;;;;;;57.75;29.17;;;;;;;;;;4896052;29;20146;-88
2021/11/12 01:02:45;;;;;;;66.72;30.58;;;;;;;;;;4883647;29;20065;-88
2021/11/12 01:05:12;;;;;;;60.67;29.83;;;;;;;;;;4880556;29;20403;-89
2021/11/12 01:07:39;;;;;;;64.85;29.55;;;;;;;;;;4880406;29;20043;-88
2021/11/12 01:10:06;;;;;;;62.15;29.60;;;;;;;;;;4879754;29;20029;-88
2021/11/12 01:12:33;;;;;;;59.50;29.13;;;;;;;;;;4879613;29;20036;-88
2021/11/12 01:14:59;;;;;;;54.63;26.83;;;;;;;;;;4880034;29;20123;-88
2021/11/12 01:17:25;;;;;;;60.40;29.60;;;;;;;;;;4880066;29;20033;-88
2021/11/12 01:19:51;;;;;;;59.30;28.05;;;;;;;;;;4879441;29;20033;-89
2021/11/12 01:22:17;;;;;;;56.55;28.83;;;;;;;;;;4879807;29;20092;-88
2021/11/12 01:24:45;;;;;;;62.08;29.55;;;;;;;;;;4879794;29;20024;-89
2021/11/12 01:27:11;;;;;;;62.25;29.48;;;;;;;;;;4880001;29;20108;-88
2021/11/12 01:29:38;;;;;;;58.00;28.52;;;;;;;;;;4879147;29;20029;-88
2021/11/12 01:32:21;;;;;;;62.47;30.45;;;;;;;;;;4879572;29;20079;-88
2021/11/12 01:34:48;;;;;;;58.20;29.45;;;;;;;;;;4845632;29;20506;-88
2021/11/12 01:37:19;;;;;;;53.00;28.25;;;;;;;;;;4854547;29;20067;-88
2021/11/12 01:39:54;;;;;;;54.30;28.00;;;;;;;;;;4863498;29;20040;-88
2021/11/12 01:42:21;;;;;;;58.55;29.30;;;;;;;;;;4872828;29;20029;-89
2021/11/12 01:44:53;;;;;;;58.92;28.17;;;;;;;;;;4880822;29;20032;-89
2021/11/12 01:50:09;;;;;;;63.55;29.48;;;;;;;;;;4880131;29;20033;-88
2021/11/12 01:53:07;;;;;;;58.73;30.77;;;;;;;;;;4880219;29;20530;-89
2021/11/12 01:56:06;;;;;;;61.90;28.15;;;;;;;;;;4879993;29;20040;-88
2021/11/12 02:00:49;;;;;;;54.72;28.75;;;;;;;;;;4880176;29;20406;-88
2021/11/12 02:03:15;;;;;;;61.22;28.42;;;;;;;;;;4879107;29;20032;-88
2021/11/12 02:05:41;;;;;;;54.70;27.90;;;;;;;;;;4883751;29;20060;-88
2021/11/12 02:08:10;;;;;;;54.85;28.48;;;;;;;;;;4878055;29;20029;-86
2021/11/12 02:10:36;;;;;;;59.25;27.60;;;;;;;;;;4876599;29;20085;-87
2021/11/12 02:13:16;;;;;;;61.72;31.25;;;;;;;;;;4881249;29;20101;-87
2021/11/12 02:15:43;;;;;;;63.20;33.45;;;;;;;;;;4878529;29;20033;-86
2021/11/12 02:18:15;;;;;;;63.00;30.58;;;;;;;;;;4878502;29;20383;-87
2021/11/12 02:20:55;;;;;;;58.55;28.13;;;;;;;;;;4878647;29;20036;-87
2021/11/12 02:23:21;;;;;;;57.13;26.92;;;;;;;;;;4867246;29;20475;-87
2021/11/12 02:25:47;;;;;;;56.58;26.70;;;;;;;;;;4863179;29;20040;-87
2021/11/12 02:28:15;;;;;;;54.17;25.83;;;;;;;;;;4864196;29;20067;-87
2021/11/12 02:30:43;;;;;;;53.42;27.23;;;;;;;;;;4867982;29;20121;-87
2021/11/12 02:33:15;;;;;;;50.28;26.30;;;;;;;;;;4875729;29;20481;-87
2021/11/12 02:35:59;;;;;;;49.58;24.08;;;;;;;;;;4863694;29;20090;-87
2021/11/12 02:38:26;;;;;;;50.90;24.40;;;;;;;;;;4880684;29;20552;-87
2021/11/12 02:40:52;;;;;;;56.03;27.23;;;;;;;;;;4885955;29;20044;-87
2021/11/12 02:43:18;;;;;;;54.15;25.30;;;;;;;;;;4887022;29;20025;-87
2021/11/12 02:45:44;;;;;;;49.53;26.23;;;;;;;;;;4869719;29;20033;-87
2021/11/12 02:48:11;;;;;;;54.67;25.05;;;;;;;;;;4863408;29;20040;-87
2021/11/12 02:50:41;;;;;;;47.05;24.63;;;;;;;;;;4870718;29;20025;-87
2021/11/12 02:53:16;;;;;;;44.92;24.30;;;;;;;;;;4862564;29;20112;-87
2021/11/12 02:55:43;;;;;;;53.47;25.20;;;;;;;;;;4862521;29;20017;-88
2021/11/12 02:58:10;;;;;;;53.75;26.23;;;;;;;;;;4862437;29;20061;-88
2021/11/12 03:00:37;;;;;;;51.20;25.25;;;;;;;;;;4889536;29;20025;-87
2021/11/12 03:03:04;;;;;;;56.90;28.35;;;;;;;;;;4880936;29;20069;-87
2021/11/12 03:05:33;;;;;;;47.03;24.15;;;;;;;;;;4880760;29;20083;-87
2021/11/12 03:08:00;;;;;;;49.85;23.67;;;;;;;;;;4880281;29;20025;-87
2021/11/12 03:10:26;;;;;;;54.10;25.77;;;;;;;;;;4871294;29;20025;-87
2021/11/12 03:12:53;;;;;;;52.10;26.85;;;;;;;;;;4862776;29;20173;-87
2021/11/12 03:15:19;;;;;;;59.03;28.38;;;;;;;;;;4879166;29;20025;-87
2021/11/12 03:17:47;;;;;;;55.72;28.15;;;;;;;;;;4878005;29;20037;-88
2021/11/12 03:20:14;;;;;;;52.90;27.73;;;;;;;;;;4877930;29;20026;-87
2021/11/12 03:22:47;;;;;;;47.15;25.27;;;;;;;;;;4879187;29;20061;-87
2021/11/12 03:25:25;;;;;;;36.85;20.52;;;;;;;;;;4880431;29;20021;-87
2021/11/12 03:28:14;;;;;;;36.85;18.85;;;;;;;;;;4889182;29;20021;-87
2021/11/12 04:41:45;;;;;;;46.47;22.33;;;;;;;;;;4888054;29;20043;-88
2021/11/12 05:57:13;;;;;;;49.00;24.08;;;;;;;;;;4893922;29;20128;-87
2021/11/12 05:59:39;;;;;;;49.83;24.95;;;;;;;;;;4899891;29;20177;-88
2021/11/12 06:02:05;;;;;;;52.58;25.60;;;;;;;;;;4882404;29;20021;-87
2021/11/12 06:04:32;;;;;;;49.85;24.92;;;;;;;;;;4882082;29;20045;-87
2021/11/12 06:06:58;;;;;;;47.45;22.90;;;;;;;;;;4882159;29;20028;-87
2021/11/12 06:09:24;;;;;;;43.28;21.23;;;;;;;;;;4882410;29;20021;-87
2021/11/12 06:11:54;;;;;;;48.00;22.08;;;;;;;;;;4882448;29;20028;-88
2021/11/12 06:14:24;;;;;;;45.15;20.48;;;;;;;;;;4882025;29;20056;-88
2021/11/12 06:16:51;;;;;;;44.88;21.58;;;;;;;;;;4899203;29;20516;-88
2021/11/12 06:19:17;;;;;;;40.97;21.63;;;;;;;;;;4899673;29;20024;-88
2021/11/12 06:21:44;;;;;;;41.70;20.00;;;;;;;;;;4882810;29;20474;-87
2021/11/12 06:24:10;;;;;;;45.33;21.20;;;;;;;;;;4881967;29;20095;-88
2021/11/12 06:26:36;;;;;;;37.85;19.65;;;;;;;;;;4882473;29;20102;-88
2021/11/12 06:29:03;;;;;;;40.05;20.00;;;;;;;;;;4881440;29;21151;-87
2021/11/12 06:31:29;;;;;;;38.80;20.92;;;;;;;;;;4882246;29;20032;-87
2021/11/12 06:33:55;;;;;;;44.33;20.83;;;;;;;;;;4882305;29;20050;-87
2021/11/12 06:36:21;;;;;;;37.63;18.73;;;;;;;;;;4898523;29;20025;-88
2021/11/12 06:38:48;;;;;;;44.80;21.15;;;;;;;;;;4921939;29;20025;-88
2021/11/12 06:41:16;;;;;;;44.15;20.98;;;;;;;;;;4901055;29;20052;-87
2021/11/12 06:51:39;;;;;;;36.53;19.15;;;;;;;;;;4898586;29;20222;-87
2021/11/12 06:54:06;;;;;;;33.63;18.83;;;;;;;;;;4883139;29;20491;-87
2021/11/12 06:56:32;;;;;;;36.08;19.92;;;;;;;;;;4882675;29;20024;-88
2021/11/12 06:58:58;;;;;;;34.42;18.63;;;;;;;;;;4898234;29;20029;-88
2021/11/12 07:01:26;;;;;;;32.15;17.90;;;;;;;;;;4880803;29;20063;-88
2021/11/12 07:03:52;;;;;;;33.33;17.27;;;;;;;;;;4881674;29;20193;-88
2021/11/12 07:06:18;;;;;;;33.08;17.10;;;;;;;;;;4883676;29;20092;-88
2021/11/12 07:08:44;;;;;;;32.90;17.95;;;;;;;;;;4881258;29;20447;-88
2021/11/12 07:11:12;;;;;;;34.15;17.50;;;;;;;;;;4880912;29;20032;-88
2021/11/12 07:13:38;;;;;;;32.10;17.48;;;;;;;;;;4881735;29;20031;-88
2021/11/12 07:16:04;;;;;;;29.30;16.80;;;;;;;;;;4881687;29;20032;-88
2021/11/12 07:18:31;;;;;;;30.48;16.77;;;;;;;;;;4882167;29;20029;-88
2021/11/12 07:20:58;;;;;;;29.45;17.75;;;;;;;;;;4880630;29;20033;-87
2021/11/12 07:23:26;;;;;;;33.30;17.80;;;;;;;;;;4896717;29;20029;-87
2021/11/12 07:25:53;;;;;;;31.50;17.25;;;;;;;;;;4881441;29;20040;-87
2021/11/12 07:28:22;;;;;;;30.42;18.38;;;;;;;;;;4881772;29;20103;-87
2021/11/12 07:30:48;;;;;;;28.55;16.75;;;;;;;;;;4897964;29;20479;-87
2021/11/12 07:33:15;;;;;;;29.23;16.63;;;;;;;;;;4879847;29;20040;-87
2021/11/12 07:35:50;;;;;;;29.88;17.38;;;;;;;;;;4882730;29;20032;-86
2021/11/12 07:38:22;;;;;;;29.73;15.90;;;;;;;;;;4883837;29;20113;-87
2021/11/12 07:41:02;;;;;;;32.47;18.17;;;;;;;;;;4882921;29;20048;-87
2021/11/12 07:48:42;;;;;;;29.90;17.25;;;;;;;;;;4899324;29;20043;-87
2021/11/12 07:51:09;;;;;;;30.98;16.70;;;;;;;;;;4878624;29;20064;-87
2021/11/12 07:53:35;;;;;;;30.45;17.60;;;;;;;;;;4874302;29;20069;-87
2021/11/12 07:56:02;;;;;;;29.58;17.77;;;;;;;;;;4883289;29;20034;-87
2021/11/12 07:58:28;;;;;;;31.25;17.45;;;;;;;;;;4882834;29;20071;-87
2021/11/12 08:00:54;;;;;;;32.67;17.88;;;;;;;;;;4882218;29;20032;-87
2021/11/12 08:03:20;;;;;;;28.63;16.42;;;;;;;;;;4880390;29;20029;-87
2021/11/12 08:05:51;;;;;;;29.10;16.67;;;;;;;;;;4897941;29;20082;-87
2021/11/12 08:08:19;;;;;;;30.10;15.35;;;;;;;;;;4875547;29;20149;-87
2021/11/12 08:10:53;;;;;;;27.85;15.43;;;;;;;;;;4880804;29;20180;-87
2021/11/12 08:13:34;;;;;;;30.73;17.15;;;;;;;;;;4883064;29;20037;-87
2021/11/12 08:16:17;;;;;;;30.83;16.83;;;;;;;;;;4900732;29;20029;-87
2021/11/12 08:18:58;;;;;;;35.75;18.73;;;;;;;;;;4885827;29;20120;-87
2021/11/12 08:26:47;;;;;;;29.48;15.75;;;;;;;;;;4883161;29;20468;-86
2021/11/12 08:34:30;;;;;;;33.15;19.63;;;;;;;;;;4903018;29;20486;-87
2021/11/12 08:37:11;;;;;;;28.30;15.70;;;;;;;;;;4900479;29;20103;-87
2021/11/12 08:40:17;;;;;;;28.88;15.95;;;;;;;;;;4883739;29;20025;-87
2021/11/12 08:42:35;;;;;;;30.75;16.17;;;;;;;;;;4897721;29;20514;-87
2021/11/12 08:45:21;;;;;;;32.67;17.35;;;;;;;;;;4882881;29;20032;-87
2021/11/12 08:47:52;;;;;;;31.08;16.88;;;;;;;;;;4901079;29;20024;-87
2021/11/12 08:50:20;;;;;;;29.63;16.00;;;;;;;;;;4900588;29;20024;-87
2021/11/12 08:52:48;;;;;;;31.75;16.95;;;;;;;;;;4883730;29;20032;-87
2021/11/12 08:55:15;;;;;;;32.72;18.30;;;;;;;;;;4892694;29;20061;-87
2021/11/12 08:57:41;;;;;;;33.17;17.08;;;;;;;;;;4888951;29;20032;-87
2021/11/12 09:00:09;;;;;;;31.30;16.95;;;;;;;;;;4924271;29;20040;-87
2021/11/12 09:02:35;;;;;;;31.02;17.08;;;;;;;;;;4891949;29;20035;-87
2021/11/12 09:05:01;;;;;;;32.25;17.02;;;;;;;;;;4883209;29;20047;-87
2021/11/12 09:07:27;;;;;;;31.77;17.70;;;;;;;;;;4883593;29;20052;-88
2021/11/12 09:09:56;;;;;;;34.25;18.20;;;;;;;;;;4883200;29;20025;-87
2021/11/12 09:12:24;;;;;;;32.55;18.65;;;;;;;;;;4883206;29;20084;-87
2021/11/12 09:14:51;;;;;;;34.88;18.73;;;;;;;;;;4883025;29;20028;-88
2021/11/12 09:17:20;;;;;;;36.20;18.50;;;;;;;;;;4882199;29;20486;-87
2021/11/12 09:19:51;;;;;;;37.67;18.65;;;;;;;;;;4883023;29;20044;-87
2021/11/12 09:22:21;;;;;;;29.88;15.15;;;;;;;;;;4881883;29;20513;-87
2021/11/12 09:24:48;;;;;;;30.83;17.67;;;;;;;;;;4883074;29;20044;-87
2021/11/12 09:27:15;;;;;;;30.73;16.90;;;;;;;;;;4883152;29;20045;-88
2021/11/12 09:29:42;;;;;;;33.65;17.92;;;;;;;;;;4896371;29;20080;-88
2021/11/12 09:32:08;;;;;;;36.97;19.45;;;;;;;;;;4898601;29;20115;-87
2021/11/12 09:34:35;;;;;;;50.15;23.25;;;;;;;;;;4900228;29;20462;-88
2021/11/12 09:37:04;;;;;;;44.60;23.67;;;;;;;;;;4898233;29;20029;-87
2021/11/12 09:39:31;;;;;;;36.70;20.88;;;;;;;;;;4898704;29;20052;-87
2021/11/12 09:41:58;;;;;;;36.88;20.05;;;;;;;;;;4899783;29;20029;-87
2021/11/12 09:44:24;;;;;;;32.95;19.42;;;;;;;;;;4914110;29;20048;-87
2021/11/12 09:46:50;;;;;;;36.95;20.20;;;;;;;;;;4935560;29;20029;-87
2021/11/12 09:49:16;;;;;;;40.50;20.90;;;;;;;;;;4931218;29;20088;-87
2021/11/12 09:51:42;;;;;;;37.22;19.70;;;;;;;;;;4902180;29;20059;-87
2021/11/12 09:54:09;;;;;;;34.40;19.50;;;;;;;;;;4914812;29;20116;-87
2021/11/12 09:56:35;;;;;;;34.85;19.80;;;;;;;;;;4898030;29;20025;-87
2021/11/12 09:59:01;;;;;;;34.95;19.95;;;;;;;;;;4898390;29;20025;-87
2021/11/12 10:01:29;;;;;;;36.10;20.02;;;;;;;;;;4899155;29;20032;-87
2021/11/12 10:04:00;;;;;;;37.42;20.85;;;;;;;;;;4917677;29;20028;-87
2021/11/12 10:06:27;;;;;;;34.40;19.15;;;;;;;;;;4916741;29;20512;-87
2021/11/12 10:08:54;;;;;;;32.05;18.25;;;;;;;;;;4916716;29;20035;-87
2021/11/12 10:11:25;;;;;;;33.30;18.90;;;;;;;;;;4908870;29;20040;-87
2021/11/12 10:13:59;;;;;;;32.85;18.40;;;;;;;;;;4897911;29;20068;-87
2021/11/12 10:16:35;;;;;;;33.60;18.77;;;;;;;;;;4898064;29;20033;-87
2021/11/12 10:19:04;;;;;;;36.58;19.73;;;;;;;;;;4898056;29;20379;-87
2021/11/12 10:21:33;;;;;;;40.78;19.58;;;;;;;;;;4897850;29;20072;-88
2021/11/12 10:24:01;;;;;;;27.90;17.65;;;;;;;;;;4913336;29;20088;-88
2021/11/12 10:26:34;;;;;;;32.17;19.35;;;;;;;;;;4898427;29;20031;-87
2021/11/12 10:29:05;;;;;;;35.55;18.73;;;;;;;;;;4896865;29;20060;-88
2021/11/12 10:31:37;;;;;;;37.83;19.55;;;;;;;;;;4878053;29;20057;-87
2021/11/12 10:34:09;;;;;;;29.70;17.63;;;;;;;;;;4860086;29;20036;-88
2021/11/12 10:36:51;;;;;;;32.92;18.95;;;;;;;;;;4894962;29;20041;-87
2021/11/12 10:39:25;;;;;;;38.08;20.33;;;;;;;;;;4897353;29;20040;-88
2021/11/12 10:41:51;;;;;;;38.35;20.63;;;;;;;;;;4889188;29;20123;-88
2021/11/12 10:44:17;;;;;;;34.85;19.73;;;;;;;;;;4897599;29;20128;-88
2021/11/12 10:46:43;;;;;;;52.65;30.52;;;;;;;;;;4897512;29;20035;-89
2021/11/12 10:49:26;;;;;;;39.42;19.38;;;;;;;;;;4897336;29;20035;-87
2021/11/12 10:51:54;;;;;;;35.75;19.75;;;;;;;;;;4878699;29;20120;-88
2021/11/12 10:55:08;;;;;;;35.03;20.15;;;;;;;;;;4896907;29;20095;-87
2021/11/12 10:57:28;;;;;;;35.75;18.63;;;;;;;;;;4897481;29;20036;-87
2021/11/12 11:00:00;;;;;;;41.25;18.90;;;;;;;;;;4897341;29;20032;-87
2021/11/12 11:02:30;;;;;;;35.00;19.10;;;;;;;;;;4884713;29;20020;-87
2021/11/12 11:05:04;;;;;;;35.42;19.42;;;;;;;;;;4898076;29;20029;-88
2021/11/12 11:07:31;;;;;;;37.45;19.08;;;;;;;;;;4896943;29;20063;-87
2021/11/12 11:09:57;;;;;;;37.63;18.00;;;;;;;;;;4896787;29;20056;-87
2021/11/12 11:12:34;;;;;;;48.22;19.63;;;;;;;;;;4867476;29;20033;-88
2021/11/12 11:15:18;;;;;;;39.17;18.67;;;;;;;;;;4894996;29;20073;-88
2021/11/12 11:17:46;;;;;;;36.42;18.23;;;;;;;;;;4897012;29;20025;-87
2021/11/12 11:20:16;;;;;;;41.58;19.08;;;;;;;;;;4875957;29;20483;-88
2021/11/12 11:23:01;;;;;;;32.28;17.50;;;;;;;;;;4873699;29;20033;-87
2021/11/12 11:25:28;;;;;;;37.60;20.52;;;;;;;;;;4877785;29;20108;-87
2021/11/12 11:27:55;;;;;;;52.30;21.38;;;;;;;;;;4877116;29;20036;-87
2021/11/12 11:30:21;;;;;;;36.42;19.85;;;;;;;;;;4910052;29;20111;-87
2021/11/12 11:32:48;;;;;;;40.35;18.98;;;;;;;;;;4914749;29;20024;-87
2021/11/12 11:35:16;;;;;;;38.08;18.77;;;;;;;;;;4914868;29;20561;-87
2021/11/12 11:37:42;;;;;;;33.58;19.90;;;;;;;;;;4914907;29;20040;-87
2021/11/12 11:40:10;;;;;;;37.88;20.50;;;;;;;;;;4915118;29;20041;-87
2021/11/12 11:45:40;;;;;;;40.22;20.23;;;;;;;;;;4918020;29;20028;-87
2021/11/12 11:48:07;;;;;;;37.03;19.65;;;;;;;;;;4919194;29;20020;-86
2021/11/12 11:50:33;;;;;;;43.83;20.40;;;;;;;;;;4919176;29;20470;-87
2021/11/12 11:53:18;;;;;;;36.05;18.98;;;;;;;;;;4920508;29;20067;-87
2021/11/12 11:55:44;;;;;;;36.08;18.15;;;;;;;;;;4917881;29;20064;-86
2021/11/12 11:58:31;;;;;;;47.08;21.10;;;;;;;;;;4903415;29;20482;-87
2021/11/12 12:01:20;;;;;;;49.20;20.88;;;;;;;;;;4918772;29;20172;-87
2021/11/12 12:03:47;;;;;;;41.78;21.73;;;;;;;;;;4898546;29;20047;-87
2021/11/12 12:06:20;;;;;;;40.55;21.77;;;;;;;;;;4924922;29;20035;-87
2021/11/12 12:08:45;;;;;;;;;;;;;;;;;;4939014;29;20024;-87
2021/11/12 12:11:31;;;;;;;52.60;21.75;;;;;;;;;;4942049;29;19915;-87
2021/11/12 12:14:16;;;;;;;40.13;19.70;;;;;;;;;;4922465;29;20036;-87
2021/11/12 12:16:42;;;;;;;42.92;22.60;;;;;;;;;;4936642;29;20091;-86
2021/11/12 12:19:27;;;;;;;44.30;23.00;;;;;;;;;;4937624;29;20034;-86
2021/11/12 12:22:10;;;;;;;39.75;21.67;;;;;;;;;;4916775;29;20055;-87
2021/11/12 12:30:53;;;;;;;41.60;21.40;;;;;;;;;;4913435;29;20123;-87
2021/11/12 13:22:02;;;;;;;32.58;17.27;;;;;;;;;;4918068;29;20040;-86
2021/11/12 13:24:33;;;;;;;37.75;20.48;;;;;;;;;;4916536;29;20028;-87
2021/11/12 13:27:06;;;;;;;35.08;20.73;;;;;;;;;;4917326;29;20494;-86
2021/11/12 13:29:33;;;;;;;33.10;18.75;;;;;;;;;;4913563;29;20066;-87
2021/11/12 13:32:04;;;;;;;38.53;20.38;;;;;;;;;;4898110;29;20092;-86
2021/11/12 13:34:39;;;;;;;38.45;19.42;;;;;;;;;;4900678;29;20033;-87
2021/11/12 13:37:12;;;;;;;37.00;19.45;;;;;;;;;;4911073;29;20028;-86
2021/11/12 13:39:38;;;;;;;;;;;;;;;;;;4898651;29;20562;-87
2021/11/12 13:42:04;;;;;;;31.73;18.23;;;;;;;;;;4912972;29;19911;-86
2021/11/12 13:44:32;;;;;;;35.15;20.48;;;;;;;;;;4898289;29;20037;-87
2021/11/12 13:47:00;;;;;;;32.42;18.00;;;;;;;;;;4898598;29;20116;-86
2021/11/12 13:49:34;;;;;;;36.92;20.42;;;;;;;;;;4898271;29;20119;-87
2021/11/12 13:52:09;;;;;;;38.15;21.83;;;;;;;;;;4912957;29;20119;-87
2021/11/12 13:54:53;;;;;;;40.53;20.73;;;;;;;;;;4899544;29;20040;-87
2021/11/12 13:57:24;;;;;;;35.38;20.15;;;;;;;;;;4907592;29;20037;-87
2021/11/12 14:00:10;;;;;;;37.97;19.83;;;;;;;;;;4898690;29;20132;-86
2021/11/12 14:02:53;;;;;;;41.22;22.83;;;;;;;;;;4918671;29;20498;-86
2021/11/12 14:05:19;;;;;;;37.13;23.98;;;;;;;;;;4899715;29;20028;-86
2021/11/12 14:07:46;;;;;;;37.15;21.27;;;;;;;;;;4899284;29;20028;-86
2021/11/12 14:10:15;;;;;;;40.70;23.17;;;;;;;;;;4896409;29;21201;-87
2021/11/12 14:13:10;;;;;;;38.72;22.20;;;;;;;;;;4903460;29;20079;-86
2021/11/12 14:15:48;;;;;;;39.88;22.05;;;;;;;;;;4903123;29;20043;-86
2021/11/12 14:21:08;;;;;;;40.95;22.55;;;;;;;;;;4898077;29;20064;-87
2021/11/12 14:23:51;;;;;;;39.17;21.73;;;;;;;;;;4915268;29;20033;-86
2021/11/12 14:26:28;;;;;;;39.80;22.88;;;;;;;;;;4910209;29;20032;-86
2021/11/12 14:29:02;;;;;;;37.63;19.55;;;;;;;;;;4896957;29;20510;-86
2021/11/12 14:36:54;;;;;;;45.47;22.35;;;;;;;;;;4897612;29;20035;-86
2021/11/12 14:39:47;;;;;;;42.47;21.80;;;;;;;;;;4895254;29;20036;-86
2021/11/12 14:45:17;;;;;;;41.20;22.08;;;;;;;;;;4896457;29;20001;-86
2021/11/12 14:53:38;;;;;;;48.42;22.38;;;;;;;;;;4897450;29;20049;-86
2021/11/12 14:58:47;;;;;;;47.53;24.90;;;;;;;;;;4845719;29;20152;-86
2021/11/12 15:01:18;;;;;;;41.60;23.77;;;;;;;;;;4854203;29;20059;-86
2021/11/12 15:03:45;;;;;;;44.40;24.50;;;;;;;;;;4856564;29;20085;-86
2021/11/12 15:06:12;;;;;;;44.78;24.45;;;;;;;;;;4857221;29;20497;-86
2021/11/12 15:08:53;;;;;;;43.00;22.90;;;;;;;;;;4857357;29;20021;-86
2021/11/12 15:11:22;;;;;;;45.42;23.35;;;;;;;;;;4852757;29;20040;-85
2021/11/12 15:16:58;;;;;;;44.47;25.13;;;;;;;;;;4828701;29;20207;-86
2021/11/12 15:19:25;;;;;;;46.42;25.42;;;;;;;;;;4865535;29;20049;-87
2021/11/12 15:24:28;;;;;;;43.25;23.05;;;;;;;;;;4880626;29;20058;-86
2021/11/12 15:27:03;;;;;;;44.72;25.00;;;;;;;;;;4861958;29;20033;-87
2021/11/12 17:46:16;;;;;;;52.55;29.52;;;;;;;;;;4917882;29;20043;-86
2021/11/12 17:48:46;;;;;;;54.13;29.40;;;;;;;;;;4917244;29;20031;-86
2021/11/12 17:51:35;;;;;;;55.88;27.83;;;;;;;;;;4917390;29;20446;-86
2021/11/12 18:02:26;;;;;;;54.38;28.63;;;;;;;;;;4918922;29;20043;-86
2021/11/12 21:48:06;;;;;;;71.05;33.63;;;;;;;;;;4897479;29;20033;-89
2021/11/12 21:50:33;;;;;;;71.63;34.00;;;;;;;;;;4896458;29;20040;-88
2021/11/12 21:53:09;;;;;;;68.95;33.40;;;;;;;;;;4896947;29;20084;-87
2021/11/12 21:55:35;;;;;;;65.78;32.65;;;;;;;;;;4907112;29;20032;-88
2021/11/12 21:58:02;;;;;;;71.28;32.97;;;;;;;;;;4903956;29;20032;-88
2021/11/12 22:00:29;;;;;;;66.28;31.73;;;;;;;;;;4896782;29;20402;-87
2021/11/12 22:02:55;;;;;;;56.72;30.48;;;;;;;;;;4879945;29;20029;-88
2021/11/12 22:05:21;;;;;;;61.60;31.13;;;;;;;;;;4897963;29;20478;-88
2021/11/12 22:07:48;;;;;;;59.53;31.55;;;;;;;;;;4897982;29;20029;-88
2021/11/12 22:10:14;;;;;;;57.65;30.67;;;;;;;;;;4897087;29;20029;-88
2021/11/12 22:12:40;;;;;;;54.85;30.15;;;;;;;;;;4897812;29;20032;-88
2021/11/12 22:15:06;;;;;;;56.33;31.23;;;;;;;;;;4907812;29;20139;-88
2021/11/12 22:17:33;;;;;;;59.55;30.88;;;;;;;;;;4905863;29;20111;-88
2021/11/12 22:19:59;;;;;;;57.20;31.33;;;;;;;;;;4896346;29;20039;-88
2021/11/12 22:22:25;;;;;;;52.75;29.23;;;;;;;;;;4906031;29;20048;-87
2021/11/12 22:24:51;;;;;;;55.80;29.17;;;;;;;;;;4915691;29;20028;-87
2021/11/12 22:27:17;;;;;;;58.70;30.52;;;;;;;;;;4916045;29;20028;-88
2021/11/12 22:29:43;;;;;;;55.63;29.10;;;;;;;;;;4915395;29;20017;-88
2021/11/12 22:32:09;;;;;;;55.72;28.67;;;;;;;;;;4911676;29;20080;-88
2021/11/12 22:34:35;;;;;;;59.00;29.77;;;;;;;;;;4903193;29;20063;-88
2021/11/12 22:37:01;;;;;;;53.53;28.30;;;;;;;;;;4915111;29;20059;-88
2021/11/12 22:39:27;;;;;;;53.70;28.83;;;;;;;;;;4914579;29;20034;-88
2021/11/12 22:41:54;;;;;;;65.35;33.38;;;;;;;;;;4898821;29;20450;-88
2021/11/12 22:44:20;;;;;;;57.63;29.05;;;;;;;;;;4914748;29;20123;-88
2021/11/12 22:46:47;;;;;;;55.55;30.90;;;;;;;;;;4900418;29;20080;-88
2021/11/12 22:49:13;;;;;;;57.05;30.15;;;;;;;;;;4916515;29;20474;-88
2021/11/12 22:51:40;;;;;;;58.65;30.08;;;;;;;;;;4913935;29;20111;-88
2021/11/12 22:54:06;;;;;;;48.67;28.08;;;;;;;;;;4916836;29;20031;-87
2021/11/12 22:56:32;;;;;;;54.22;27.35;;;;;;;;;;4915033;29;20028;-87
2021/11/12 22:58:59;;;;;;;57.83;30.10;;;;;;;;;;4916338;29;20105;-88
2021/11/12 23:01:27;;;;;;;58.33;29.42;;;;;;;;;;4925681;29;20068;-87
2021/11/12 23:03:53;;;;;;;54.67;29.85;;;;;;;;;;4916630;29;20098;-87
2021/11/12 23:06:19;;;;;;;58.15;30.80;;;;;;;;;;4915318;29;20024;-87
2021/11/12 23:08:45;;;;;;;58.47;30.42;;;;;;;;;;4916129;29;20389;-87
2021/11/12 23:11:13;;;;;;;63.83;32.40;;;;;;;;;;4913922;29;20036;-87
2021/11/12 23:13:39;;;;;;;58.33;30.83;;;;;;;;;;4914596;29;20123;-87
2021/11/12 23:16:05;;;;;;;58.95;29.90;;;;;;;;;;4915070;29;20028;-87
2021/11/12 23:18:31;;;;;;;61.25;30.08;;;;;;;;;;4914507;29;20040;-87
2021/11/12 23:20:58;;;;;;;60.00;30.92;;;;;;;;;;4914354;29;20385;-88
2021/11/12 23:23:25;;;;;;;58.40;31.40;;;;;;;;;;4914512;29;20035;-87
2021/11/12 23:25:51;;;;;;;62.50;30.58;;;;;;;;;;4914729;29;20445;-87
2021/11/12 23:28:17;;;;;;;63.13;30.40;;;;;;;;;;4914462;29;20028;-87
2021/11/12 23:30:44;;;;;;;62.83;30.80;;;;;;;;;;4922425;29;20084;-88
2021/11/12 23:33:10;;;;;;;64.70;30.20;;;;;;;;;;4934142;29;20035;-87
2021/11/12 23:35:36;;;;;;;59.05;30.60;;;;;;;;;;4932370;29;20122;-88
2021/11/12 23:38:02;;;;;;;66.35;33.80;;;;;;;;;;4914821;29;20067;-87
2021/11/12 23:40:28;;;;;;;65.38;33.30;;;;;;;;;;4914327;29;20032;-88
2021/11/12 23:42:54;;;;;;;60.92;31.70;;;;;;;;;;4916720;29;20071;-88
2021/11/12 23:45:21;;;;;;;63.92;33.17;;;;;;;;;;4918757;29;20442;-88
2021/11/12 23:47:48;;;;;;;60.88;32.55;;;;;;;;;;4918321;29;20086;-87
2021/11/12 23:50:14;;;;;;;69.97;34.17;;;;;;;;;;4918243;29;20035;-87
2021/11/12 23:52:40;;;;;;;75.55;36.80;;;;;;;;;;4918831;29;20027;-87
2021/11/12 23:55:07;;;;;;;70.43;35.67;;;;;;;;;;4918602;29;20072;-88
2021/11/12 23:57:33;;;;;;;67.95;35.17;;;;;;;;;;4918740;29;20032;-87
